Time;durP1;ratioP1;P1;durP2;ratioP2;P2;SDS_P1;SDS_P2;PMS_P1;PMS_P2;Temp;Humidity;BMP_temperature;BMP_pressure;BME280_temperature;BME280_humidity;BME280_pressure;Samples;Min_cycle;Max_cycle;Signal;HPM_P1;HPM_P2
2022/05/18 00:01:06;;;;;;;12.43;9.98;;;;;;;21.25;45.22;99533.03;1837154;78;21139;-67
2022/05/18 00:03:36;;;;;;;11.12;9.93;;;;;;;21.23;45.23;99530.59;1821221;77;21485;-69
2022/05/18 00:06:05;;;;;;;11.05;9.88;;;;;;;21.21;45.23;99526.78;1859653;77;21009;-68
2022/05/18 00:08:37;;;;;;;10.58;9.28;;;;;;;21.20;45.25;99525.66;1835749;77;20993;-67
2022/05/18 00:11:08;;;;;;;10.90;8.70;;;;;;;21.19;45.25;99526.75;1822916;77;21142;-68
2022/05/18 00:13:35;;;;;;;11.35;9.55;;;;;;;21.18;45.27;99525.09;1825708;78;21149;-68
2022/05/18 00:16:02;;;;;;;10.78;9.43;;;;;;;21.16;45.26;99526.68;1825612;78;21072;-68
2022/05/18 00:18:29;;;;;;;11.00;9.70;;;;;;;21.15;45.28;99526.91;1825770;78;20990;-67
2022/05/18 00:20:57;;;;;;;11.50;9.50;;;;;;;21.13;45.27;99524.98;1849179;76;21514;-69
2022/05/18 00:23:24;;;;;;;10.80;9.40;;;;;;;21.13;45.28;99534.44;1851334;77;21057;-68
2022/05/18 00:25:50;;;;;;;10.75;9.60;;;;;;;21.12;45.31;99535.52;1851214;77;22150;-68
2022/05/18 00:28:17;;;;;;;11.28;9.25;;;;;;;21.09;45.27;99535.99;1851396;77;20994;-68
2022/05/18 00:30:44;;;;;;;9.45;8.40;;;;;;;21.07;45.29;99533.53;1851433;77;20998;-69
2022/05/18 00:33:11;;;;;;;9.90;8.23;;;;;;;21.07;45.32;99532.72;1851411;77;21060;-67
2022/05/18 00:35:38;;;;;;;9.58;8.33;;;;;;;21.06;45.34;99540.55;1851744;77;21033;-68
2022/05/18 00:38:07;;;;;;;10.05;8.60;;;;;;;21.04;45.33;99532.68;1852399;76;21015;-67
2022/05/18 00:40:38;;;;;;;9.55;7.95;;;;;;;21.03;45.34;99536.97;1851245;77;21522;-67
2022/05/18 00:43:04;;;;;;;8.23;7.42;;;;;;;21.01;45.36;99542.09;1851526;77;21521;-68
2022/05/18 00:45:32;;;;;;;8.93;8.03;;;;;;;21.01;45.35;99545.30;1851335;77;21099;-69
2022/05/18 00:47:58;;;;;;;9.20;7.75;;;;;;;21.00;45.35;99540.98;1851492;77;20982;-68
2022/05/18 00:50:31;;;;;;;10.38;8.55;;;;;;;20.99;45.35;99545.54;1851299;77;21287;-68
2022/05/18 00:53:20;;;;;;;10.43;7.92;;;;;;;20.98;45.36;99547.16;1852705;76;21065;-69
2022/05/18 00:55:51;;;;;;;9.98;7.83;;;;;;;20.96;45.36;99546.04;1849984;77;20985;-69
2022/05/18 00:58:29;;;;;;;9.20;7.62;;;;;;;20.95;45.35;99552.48;1851654;77;20978;-69
2022/05/18 01:00:56;;;;;;;8.10;7.30;;;;;;;20.93;45.39;99550.56;1851043;77;21009;-70
2022/05/18 01:03:29;;;;;;;8.88;7.20;;;;;;;20.92;45.38;99559.73;1848403;77;21030;-69
2022/05/18 01:06:07;;;;;;;9.58;7.75;;;;;;;20.91;45.39;99558.08;1845725;77;21048;-68
2022/05/18 01:09:04;;;;;;;8.25;7.45;;;;;;;20.91;45.41;99559.97;1845680;77;21045;-69
2022/05/18 01:11:33;;;;;;;9.20;7.53;;;;;;;20.88;45.41;99554.53;1856584;76;20993;-68
2022/05/18 01:14:00;;;;;;;9.13;7.70;;;;;;;20.88;45.44;99557.73;1856637;77;21060;-69
2022/05/18 01:16:27;;;;;;;9.45;7.62;;;;;;;20.85;45.44;99561.75;1823907;77;21193;-69
2022/05/18 01:18:53;;;;;;;8.58;7.67;;;;;;;20.85;45.49;99566.34;1856630;77;21002;-69
2022/05/18 01:21:20;;;;;;;8.63;7.00;;;;;;;20.83;45.45;99563.06;1856973;77;21061;-69
2022/05/18 01:24:04;;;;;;;8.20;7.15;;;;;;;20.82;45.47;99563.56;1856562;77;21513;-69
2022/05/18 01:26:44;;;;;;;10.10;7.45;;;;;;;20.80;45.47;99567.03;1856705;77;21017;-68
2022/05/18 01:29:10;;;;;;;7.37;6.67;;;;;;;20.79;45.46;99568.92;1857247;76;21141;-69
2022/05/18 01:31:56;;;;;;;9.13;7.08;;;;;;;20.78;45.48;99566.45;1856595;77;20978;-69
2022/05/18 01:34:26;;;;;;;8.05;6.92;;;;;;;20.77;45.47;99574.28;1856722;77;20989;-68
2022/05/18 01:36:53;;;;;;;8.15;6.58;;;;;;;20.75;45.49;99576.40;1818520;78;21014;-69
2022/05/18 01:39:31;;;;;;;7.67;6.87;;;;;;;20.74;45.50;99581.50;1819472;78;21501;-69
2022/05/18 01:42:21;;;;;;;8.68;7.47;;;;;;;20.73;45.49;99573.94;1819316;78;21119;-69
2022/05/18 01:44:49;;;;;;;8.08;7.28;;;;;;;20.72;45.51;99577.67;1818027;78;20982;-67
2022/05/18 01:47:16;;;;;;;8.28;6.87;;;;;;;20.70;45.51;99578.98;1819288;78;21037;-68
2022/05/18 01:49:42;;;;;;;9.63;7.30;;;;;;;20.70;45.51;99577.64;1819553;78;21548;-68
2022/05/18 01:52:10;;;;;;;9.13;7.20;;;;;;;20.68;45.53;99581.11;1819456;78;21018;-66
2022/05/18 01:54:40;;;;;;;7.85;6.90;;;;;;;20.67;45.52;99577.59;1819680;78;21230;-67
2022/05/18 01:57:07;;;;;;;7.58;6.70;;;;;;;20.66;45.53;99584.03;1818853;78;20990;-68
2022/05/18 01:59:35;;;;;;;8.15;7.35;;;;;;;20.65;45.53;99585.11;1784348;80;21014;-69
2022/05/18 02:02:03;;;;;;;8.68;7.00;;;;;;;20.64;45.53;99588.85;1857071;76;21061;-68
2022/05/18 02:04:33;;;;;;;8.35;6.92;;;;;;;20.64;45.52;99585.34;1849195;77;21057;-67
2022/05/18 02:07:01;;;;;;;9.05;7.15;;;;;;;20.62;45.53;99582.87;1847884;77;21979;-67
2022/05/18 02:09:27;;;;;;;8.10;6.53;;;;;;;20.60;45.53;99588.50;1848104;77;20970;-67
2022/05/18 02:11:53;;;;;;;9.38;6.92;;;;;;;20.60;45.54;99586.34;1847845;77;21506;-68
2022/05/18 02:14:21;;;;;;;8.28;6.90;;;;;;;20.58;45.54;99584.38;1847956;77;21007;-68
2022/05/18 02:16:48;;;;;;;9.35;6.67;;;;;;;20.56;45.56;99592.70;1847915;77;21574;-67
2022/05/18 02:19:16;;;;;;;8.83;6.75;;;;;;;20.56;45.56;99591.36;1849336;76;21145;-68
2022/05/18 02:21:44;;;;;;;7.75;6.50;;;;;;;20.55;45.55;99590.23;1847788;77;21002;-68
2022/05/18 02:24:11;;;;;;;7.90;6.40;;;;;;;20.54;45.55;99594.02;1848174;77;21467;-69
2022/05/18 02:26:38;;;;;;;7.35;6.60;;;;;;;20.52;45.55;99598.29;1848074;77;21014;-68
2022/05/18 02:29:05;;;;;;;7.30;6.53;;;;;;;20.51;45.56;99593.94;1847887;77;21545;-68
2022/05/18 02:31:32;;;;;;;7.25;6.20;;;;;;;20.51;45.59;99593.12;1847946;77;21124;-68
2022/05/18 02:33:59;;;;;;;8.23;6.17;;;;;;;20.49;45.58;99601.45;1847764;77;21033;-67
2022/05/18 02:36:26;;;;;;;7.28;6.45;;;;;;;20.49;45.58;99597.94;1848575;76;21482;-68
2022/05/18 02:38:53;;;;;;;6.95;6.25;;;;;;;20.47;45.59;99594.12;1847880;77;21025;-69
2022/05/18 02:41:19;;;;;;;8.33;5.95;;;;;;;20.47;45.59;99594.66;1848115;77;21491;-67
2022/05/18 02:43:46;;;;;;;7.25;6.35;;;;;;;20.46;45.60;99600.59;1847906;77;21070;-67
2022/05/18 02:46:19;;;;;;;6.83;6.12;;;;;;;20.45;45.61;99597.59;1847789;77;20947;-67
2022/05/18 02:48:46;;;;;;;7.55;6.10;;;;;;;20.43;45.62;99595.66;1848084;77;21065;-68
2022/05/18 02:51:14;;;;;;;7.60;5.75;;;;;;;20.42;45.61;99599.42;1847733;77;20987;-68
2022/05/18 02:53:41;;;;;;;7.42;6.08;;;;;;;20.40;45.62;99593.45;1846637;77;20981;-68
2022/05/18 02:56:17;;;;;;;8.60;5.78;;;;;;;20.39;45.65;99598.53;1847866;77;21006;-68
2022/05/18 02:58:48;;;;;;;7.03;6.28;;;;;;;20.39;45.65;99598.53;1812587;79;21080;-68
2022/05/18 03:01:17;;;;;;;7.37;5.90;;;;;;;20.37;45.65;99596.61;1848036;77;21076;-68
2022/05/18 03:03:45;;;;;;;6.00;5.33;;;;;;;20.36;45.66;99599.84;1847774;77;20990;-68
2022/05/18 03:06:14;;;;;;;6.05;5.45;;;;;;;20.35;45.68;99604.12;1847802;77;21122;-68
2022/05/18 03:08:42;;;;;;;6.12;5.47;;;;;;;20.33;45.67;99603.00;1847263;77;21084;-68
2022/05/18 03:11:09;;;;;;;7.08;5.55;;;;;;;20.33;45.72;99607.58;1822837;76;21077;-68
2022/05/18 03:13:35;;;;;;;5.67;4.92;;;;;;;20.31;45.74;99611.85;1814541;78;21010;-68
2022/05/18 03:16:03;;;;;;;6.65;5.70;;;;;;;20.32;45.73;99611.31;1814568;79;21060;-68
2022/05/18 03:18:29;;;;;;;6.05;5.17;;;;;;;20.29;45.74;99613.97;1814704;79;21029;-68
2022/05/18 03:23:41;;;;;;;6.03;4.85;;;;;;;20.28;45.80;99615.55;1814609;79;21017;-68
2022/05/18 03:26:13;;;;;;;6.35;5.45;;;;;;;20.27;45.79;99619.31;1816447;76;21010;-68
2022/05/18 03:28:42;;;;;;;5.47;4.90;;;;;;;20.26;45.82;99614.96;1814995;79;21150;-67
2022/05/18 03:31:09;;;;;;;5.78;5.20;;;;;;;20.26;45.82;99621.16;1814515;78;21065;-68
2022/05/18 03:33:35;;;;;;;6.55;5.10;;;;;;;20.25;45.84;99618.73;1814518;78;21276;-68
2022/05/18 03:36:03;;;;;;;5.92;4.97;;;;;;;20.23;45.85;99625.70;1814459;79;20990;-67
2022/05/18 03:38:30;;;;;;;6.05;5.17;;;;;;;20.22;45.86;99621.34;1814571;78;21029;-67
2022/05/18 03:40:57;;;;;;;5.75;4.92;;;;;;;20.20;45.87;99622.95;1814442;79;21049;-67
2022/05/18 03:43:24;;;;;;;5.55;4.65;;;;;;;20.20;45.91;99624.80;1826738;76;21048;-68
2022/05/18 03:45:50;;;;;;;6.53;5.20;;;;;;;20.19;45.92;99622.64;1797355;79;21138;-68
2022/05/18 03:48:18;;;;;;;5.00;4.50;;;;;;;20.19;45.91;99626.69;1798506;79;21435;-69
2022/05/18 03:50:46;;;;;;;5.50;4.83;;;;;;;20.18;45.95;99624.22;1797483;79;21077;-68
2022/05/18 03:53:14;;;;;;;5.40;4.90;;;;;;;20.17;45.96;99624.76;1798263;79;21006;-68
2022/05/18 03:55:42;;;;;;;6.00;4.80;;;;;;;20.16;45.96;99620.94;1797340;79;22039;-68
2022/05/18 03:58:09;;;;;;;7.83;5.25;;;;;;;20.16;45.95;99629.84;1798601;79;21087;-68
2022/05/18 04:00:39;;;;;;;5.12;4.22;;;;;;;20.15;45.97;99630.10;1797057;79;21062;-68
2022/05/18 04:03:07;;;;;;;10.05;5.33;;;;;;;20.14;45.98;99626.56;1797135;79;21026;-67
2022/05/18 04:05:33;;;;;;;5.90;5.00;;;;;;;20.14;45.98;99633.84;1798463;79;21468;-67
2022/05/18 04:08:00;;;;;;;6.10;4.20;;;;;;;20.14;45.98;99634.66;1873320;76;21006;-67
2022/05/18 04:10:27;;;;;;;5.42;4.50;;;;;;;20.14;45.99;99636.53;1845382;77;21143;-68
2022/05/18 04:12:53;;;;;;;5.17;4.15;;;;;;;20.13;46.02;99634.91;1845197;77;21023;-68
2022/05/18 04:15:20;;;;;;;5.17;4.67;;;;;;;20.13;46.05;99633.03;1845790;77;21066;-67
2022/05/18 04:17:48;;;;;;;4.53;3.92;;;;;;;20.13;46.05;99642.47;1847038;76;20994;-68
2022/05/18 04:20:18;;;;;;;5.12;4.62;;;;;;;20.13;46.03;99637.07;1847827;77;21503;-68
2022/05/18 04:22:44;;;;;;;5.03;4.37;;;;;;;20.14;46.04;99643.28;1847747;77;21242;-67
2022/05/18 04:25:14;;;;;;;4.97;4.22;;;;;;;20.13;46.05;99645.70;1847657;77;21068;-68
2022/05/18 04:27:42;;;;;;;6.40;4.30;;;;;;;20.13;46.04;99647.05;1847793;77;21568;-68
2022/05/18 04:30:10;;;;;;;4.78;4.25;;;;;;;20.13;46.06;99652.44;1847775;77;21085;-68
2022/05/18 04:32:39;;;;;;;5.40;4.80;;;;;;;20.12;46.05;99655.64;1848174;77;21497;-68
2022/05/18 04:35:08;;;;;;;6.17;4.72;;;;;;;20.11;46.08;99656.71;1845705;77;21769;-69
2022/05/18 04:37:36;;;;;;;4.95;4.35;;;;;;;20.12;46.08;99661.03;1847686;77;21049;-68
2022/05/18 04:40:05;;;;;;;4.65;4.15;;;;;;;20.12;46.09;99660.22;1847750;77;21537;-68
2022/05/18 04:42:32;;;;;;;5.62;4.40;;;;;;;20.11;46.09;99659.41;1847793;77;21014;-67
2022/05/18 04:44:58;;;;;;;5.62;3.80;;;;;;;20.11;46.09;99661.26;1847648;77;20997;-68
2022/05/18 04:47:25;;;;;;;5.40;3.87;;;;;;;20.10;46.09;99657.75;1848048;77;21514;-68
2022/05/18 04:49:52;;;;;;;4.85;3.92;;;;;;;20.08;46.07;99658.52;1847609;77;21049;-68
2022/05/18 04:52:20;;;;;;;5.87;4.15;;;;;;;20.08;46.06;99661.20;1843552;76;20995;-68
2022/05/18 04:54:47;;;;;;;4.35;3.80;;;;;;;20.10;46.08;99650.19;1840047;78;21010;-67
2022/05/18 04:57:15;;;;;;;4.78;4.30;;;;;;;20.10;46.09;99669.88;1839701;77;21001;-69
2022/05/18 04:59:41;;;;;;;5.17;4.67;;;;;;;20.08;46.11;99660.39;1839759;78;21229;-67
2022/05/18 05:02:08;;;;;;;4.70;4.15;;;;;;;20.08;46.10;99657.16;1839562;78;21053;-67
2022/05/18 05:04:36;;;;;;;4.20;3.80;;;;;;;20.08;46.08;99662.55;1839776;77;20982;-69
2022/05/18 05:07:03;;;;;;;3.98;3.58;;;;;;;20.07;46.08;99666.33;1839669;78;20982;-68
2022/05/18 05:09:30;;;;;;;3.77;3.40;;;;;;;20.07;46.07;99662.78;1818279;76;21562;-68
2022/05/18 05:11:56;;;;;;;4.33;3.92;;;;;;;20.07;46.13;99660.09;1805343;79;21106;-68
2022/05/18 05:14:23;;;;;;;4.62;3.77;;;;;;;20.06;46.11;99661.97;1805275;79;20983;-69
2022/05/18 05:16:49;;;;;;;5.17;3.60;;;;;;;20.05;46.09;99663.04;1805367;78;20998;-67
2022/05/18 05:19:18;;;;;;;5.20;4.30;;;;;;;20.05;46.12;99668.44;1805333;78;20995;-67
2022/05/18 05:21:44;;;;;;;4.53;3.85;;;;;;;20.05;46.10;99668.44;1805611;79;21081;-68
2022/05/18 05:24:12;;;;;;;5.92;3.72;;;;;;;20.04;46.15;99681.07;1805343;79;21416;-68
2022/05/18 05:26:40;;;;;;;4.55;4.00;;;;;;;20.04;46.14;99677.56;1836417;76;20970;-67
2022/05/18 05:29:07;;;;;;;4.10;3.45;;;;;;;20.04;46.12;99674.86;1847828;77;21477;-68
2022/05/18 05:31:33;;;;;;;4.83;3.70;;;;;;;20.04;46.14;99674.33;1847997;77;21021;-69
2022/05/18 05:34:00;;;;;;;4.10;3.50;;;;;;;20.04;46.16;99684.30;1847840;77;21056;-67
2022/05/18 05:36:26;;;;;;;4.42;3.83;;;;;;;20.04;46.21;99680.26;1847913;77;21212;-68
2022/05/18 05:38:53;;;;;;;3.83;3.42;;;;;;;20.03;46.17;99682.14;1847741;77;21408;-67
2022/05/18 05:41:20;;;;;;;5.42;3.60;;;;;;;20.04;46.16;99682.95;1848021;77;21033;-69
2022/05/18 05:43:46;;;;;;;5.15;3.52;;;;;;;20.04;46.16;99684.30;1842293;76;21042;-68
2022/05/18 05:46:13;;;;;;;5.58;4.45;;;;;;;20.04;46.19;99686.46;1839952;77;21533;-68
2022/05/18 05:48:42;;;;;;;4.67;3.98;;;;;;;20.04;46.17;99686.46;1839967;78;21131;-68
2022/05/18 05:51:13;;;;;;;4.70;3.85;;;;;;;20.05;46.19;99685.95;1839739;78;21532;-67
2022/05/18 05:53:41;;;;;;;4.28;3.80;;;;;;;20.05;46.22;99690.00;1839966;78;21089;-68
2022/05/18 05:56:07;;;;;;;4.28;3.37;;;;;;;20.05;46.23;99691.35;1840080;77;20963;-67
2022/05/18 05:58:36;;;;;;;4.28;3.50;;;;;;;20.05;46.22;99692.70;1839897;77;20994;-68
2022/05/18 06:01:05;;;;;;;4.45;3.02;;;;;;;20.07;46.22;99699.19;1841198;76;21049;-68
2022/05/18 06:03:31;;;;;;;4.12;3.67;;;;;;;20.06;46.22;99697.02;1840196;77;20979;-68
2022/05/18 06:05:58;;;;;;;3.85;3.30;;;;;;;20.05;46.25;99698.09;1840035;77;21580;-68
2022/05/18 06:08:25;;;;;;;5.28;3.45;;;;;;;20.07;46.26;99701.38;1841910;77;20967;-67
2022/05/18 06:10:52;;;;;;;4.28;3.30;;;;;;;20.08;46.26;99704.89;1847592;77;20995;-69
2022/05/18 06:13:19;;;;;;;4.42;3.50;;;;;;;20.08;46.26;99707.05;1847973;77;21210;-68
2022/05/18 06:15:47;;;;;;;4.03;3.62;;;;;;;20.08;46.29;99711.09;1847920;77;21012;-68
2022/05/18 06:18:14;;;;;;;4.20;3.58;;;;;;;20.09;46.30;99713.25;1816698;76;21037;-68
2022/05/18 06:20:41;;;;;;;4.05;3.52;;;;;;;20.11;46.30;99717.39;1814900;79;20978;-68
2022/05/18 06:23:09;;;;;;;4.05;3.60;;;;;;;20.11;46.30;99717.89;1814703;79;21506;-68
2022/05/18 06:25:35;;;;;;;4.20;2.98;;;;;;;20.12;46.33;99713.63;1814763;78;21104;-68
2022/05/18 06:28:04;;;;;;;3.65;3.20;;;;;;;20.13;46.34;99715.81;1814593;78;21064;-68
2022/05/18 06:30:31;;;;;;;4.20;3.25;;;;;;;20.15;46.33;99716.40;1814872;79;21025;-68
2022/05/18 06:32:57;;;;;;;3.75;2.67;;;;;;;20.16;46.33;99720.73;1816505;76;21045;-69
2022/05/18 06:35:24;;;;;;;3.90;2.92;;;;;;;20.17;46.33;99722.38;1874193;76;20987;-69
2022/05/18 06:37:50;;;;;;;4.45;3.27;;;;;;;20.19;46.34;99722.44;1797336;79;21795;-68
2022/05/18 06:40:17;;;;;;;3.58;3.10;;;;;;;20.20;46.33;99724.59;1798289;79;21523;-68
2022/05/18 06:42:45;;;;;;;3.47;3.17;;;;;;;20.21;46.33;99727.07;1874030;76;21017;-69
2022/05/18 06:45:13;;;;;;;3.55;3.10;;;;;;;20.23;46.34;99730.36;1874309;76;21391;-68
2022/05/18 06:47:39;;;;;;;3.98;3.15;;;;;;;20.26;46.33;99737.69;1874465;76;20994;-68
2022/05/18 06:50:08;;;;;;;3.77;3.10;;;;;;;20.26;46.34;99733.64;1869465;76;21790;-69
2022/05/18 06:52:35;;;;;;;3.90;2.52;;;;;;;20.26;46.34;99739.85;1814830;78;21082;-68
2022/05/18 06:55:02;;;;;;;3.47;3.17;;;;;;;20.28;46.33;99732.88;1814566;79;21029;-68
2022/05/18 06:57:29;;;;;;;4.05;3.20;;;;;;;20.29;46.33;99735.89;1814683;79;21030;-67
2022/05/18 06:59:55;;;;;;;3.40;3.10;;;;;;;20.29;46.35;99738.05;1814603;79;21022;-68
2022/05/18 07:02:22;;;;;;;3.92;3.08;;;;;;;20.29;46.33;99739.40;1814579;78;21751;-68
2022/05/18 07:04:49;;;;;;;3.45;3.12;;;;;;;20.30;46.32;99738.36;1810979;79;21045;-67
2022/05/18 07:07:15;;;;;;;3.10;2.80;;;;;;;20.31;46.33;99748.62;1810679;77;21037;-67
2022/05/18 07:09:42;;;;;;;3.33;3.02;;;;;;;20.31;46.32;99741.34;1754495;81;21493;-68
2022/05/18 07:12:10;;;;;;;3.25;2.95;;;;;;;20.32;46.30;99743.00;1820683;78;21023;-68
2022/05/18 07:14:38;;;;;;;3.58;3.27;;;;;;;20.32;46.29;99735.41;1820445;78;21051;-68
2022/05/18 07:17:04;;;;;;;3.70;3.10;;;;;;;20.33;46.31;99741.11;1781340;80;21071;-68
2022/05/18 07:19:31;;;;;;;3.60;3.05;;;;;;;20.33;46.30;99742.46;1820368;78;21460;-69
2022/05/18 07:21:58;;;;;;;3.40;3.10;;;;;;;20.33;46.31;99744.63;1820239;78;21012;-69
2022/05/18 07:24:24;;;;;;;2.92;2.62;;;;;;;20.34;46.32;99750.83;1820996;77;21048;-68
2022/05/18 07:26:51;;;;;;;3.83;3.52;;;;;;;20.34;46.31;99750.33;1820399;78;21391;-68
2022/05/18 07:29:18;;;;;;;3.37;2.70;;;;;;;20.34;46.30;99748.98;1820402;78;20999;-68
2022/05/18 07:34:30;;;;;;;2.62;2.42;;;;;;;20.35;46.31;99749.80;1820306;78;21067;-68
2022/05/18 07:36:56;;;;;;;3.20;2.70;;;;;;;20.35;46.31;99757.88;1820248;78;21047;-68
2022/05/18 07:39:23;;;;;;;2.60;2.40;;;;;;;20.34;46.34;99752.18;1820448;78;21023;-69
2022/05/18 07:41:49;;;;;;;2.95;2.65;;;;;;;20.34;46.32;99745.44;1781163;80;21007;-68
2022/05/18 07:44:16;;;;;;;2.67;2.47;;;;;;;20.34;46.36;99753.53;1820239;78;21047;-68
2022/05/18 07:46:43;;;;;;;4.10;2.95;;;;;;;20.35;46.32;99764.63;1820421;78;20989;-69
2022/05/18 07:49:09;;;;;;;6.45;3.37;;;;;;;20.35;47.60;99768.14;1820354;78;21450;-69
2022/05/18 07:51:36;;;;;;;6.55;3.17;;;;;;;20.40;48.10;99772.33;1781692;80;21098;-68
2022/05/18 07:54:03;;;;;;;5.72;3.12;;;;;;;20.42;48.12;99773.45;1820284;78;21044;-69
2022/05/18 07:56:30;;;;;;;4.58;3.47;;;;;;;20.46;48.06;99773.28;1820379;78;21082;-68
2022/05/18 07:58:57;;;;;;;3.75;3.35;;;;;;;20.47;48.02;99774.91;1821018;77;21195;-69
2022/05/18 08:01:23;;;;;;;4.15;3.22;;;;;;;20.48;48.00;99773.86;1820541;78;21027;-69
2022/05/18 08:03:49;;;;;;;3.60;2.80;;;;;;;20.48;47.95;99779.26;1820278;78;21114;-69
2022/05/18 08:06:16;;;;;;;4.12;2.77;;;;;;;20.49;47.89;99775.48;1842435;77;21723;-69
2022/05/18 08:08:42;;;;;;;4.70;2.98;;;;;;;20.49;47.88;99771.98;1847885;77;20996;-68
2022/05/18 08:16:40;;;;;;;3.92;3.25;;;;;;;20.48;47.76;99775.75;1842950;76;21240;-68
2022/05/18 08:19:10;;;;;;;4.25;2.77;;;;;;;20.47;47.74;99783.00;1840090;78;20994;-68
2022/05/18 08:21:35;;;;;;;2.95;2.62;;;;;;;20.46;47.72;99793.52;1839733;78;20967;-68
2022/05/18 08:24:01;;;;;;;3.42;2.83;;;;;;;20.45;47.70;99792.39;1839772;78;20970;-69
2022/05/18 08:26:28;;;;;;;3.62;2.70;;;;;;;20.44;47.70;99792.92;1839910;78;21002;-69
2022/05/18 08:28:55;;;;;;;3.52;3.10;;;;;;;20.43;47.69;99798.83;1839751;78;21127;-69
2022/05/18 08:31:23;;;;;;;2.90;2.60;;;;;;;20.42;47.68;99790.98;1839799;78;21065;-68
2022/05/18 08:33:50;;;;;;;3.37;2.83;;;;;;;20.40;47.68;99789.86;1847170;76;21068;-68
2022/05/18 08:36:18;;;;;;;3.00;2.58;;;;;;;20.40;47.66;99786.35;1847900;77;21017;-69
2022/05/18 08:38:46;;;;;;;3.45;2.83;;;;;;;20.40;47.66;99789.05;1847894;77;21509;-69
2022/05/18 08:41:16;;;;;;;3.62;2.95;;;;;;;20.40;47.62;99790.40;1848204;77;21123;-70
2022/05/18 08:43:52;;;;;;;3.40;2.98;;;;;;;20.39;47.63;99786.04;1847978;77;21048;-68
2022/05/18 08:46:41;;;;;;;2.58;2.35;;;;;;;20.38;47.64;99784.41;1847903;77;21087;-67
2022/05/18 08:49:35;;;;;;;2.60;2.40;;;;;;;20.37;47.62;99784.91;1848127;76;20997;-67
2022/05/18 08:52:28;;;;;;;2.92;2.65;;;;;;;20.33;47.64;99785.09;1847797;77;20963;-67
2022/05/18 08:55:54;;;;;;;3.08;2.62;;;;;;;20.35;47.65;99787.02;1847638;77;21001;-68
2022/05/18 08:58:33;;;;;;;4.03;2.40;;;;;;;20.34;47.69;99788.09;1847713;77;20974;-68
2022/05/18 09:01:10;;;;;;;2.92;2.62;;;;;;;20.32;47.70;99798.30;1847450;77;20997;-68
2022/05/18 09:03:44;;;;;;;3.45;2.58;;;;;;;20.31;47.72;99785.03;1847670;77;21013;-69
2022/05/18 09:06:32;;;;;;;2.42;2.20;;;;;;;20.31;47.74;99793.13;1836496;77;21038;-68
2022/05/18 09:11:59;;;;;;;2.45;2.25;;;;;;;20.28;47.76;99799.81;1825436;78;20996;-68
2022/05/18 09:14:28;;;;;;;2.75;2.52;;;;;;;20.28;47.78;99798.97;1826345;78;21015;-68
2022/05/18 09:17:20;;;;;;;2.83;2.50;;;;;;;20.28;47.80;99796.27;1826034;78;21036;-68
2022/05/18 09:21:01;;;;;;;3.30;2.67;;;;;;;20.32;47.80;99802.84;1797638;79;23132;-68
2022/05/18 09:23:42;;;;;;;3.08;2.77;;;;;;;20.28;47.79;99793.58;1750734;80;21566;-68
2022/05/18 09:26:35;;;;;;;2.60;2.20;;;;;;;20.28;47.80;99798.47;1719685;83;21789;-68
2022/05/18 09:29:38;;;;;;;3.87;3.53;;;;;;;20.28;47.82;99804.36;1727559;82;21514;-68
2022/05/18 09:32:30;;;;;;;;;;;;;;;20.27;47.82;99814.88;1729674;83;20943;-68
2022/05/18 09:35:14;;;;;;;3.08;2.80;;;;;;;20.25;47.84;99818.33;1727056;82;20466;-67
2022/05/18 09:37:55;;;;;;;2.67;2.45;;;;;;;20.23;47.88;99817.20;1726701;81;21005;-68
2022/05/18 09:40:26;;;;;;;3.47;2.62;;;;;;;20.20;47.90;99819.84;1728257;81;21779;-68
2022/05/18 09:43:27;;;;;;;2.67;2.47;;;;;;;20.20;47.91;99827.94;1727210;83;21039;-67
2022/05/18 09:45:53;;;;;;;2.22;2.02;;;;;;;20.20;47.92;99823.89;1727071;82;20998;-68
2022/05/18 09:48:32;;;;;;;3.02;2.72;;;;;;;20.19;47.94;99830.86;1727168;83;21057;-69
2022/05/18 09:51:00;;;;;;;2.58;2.30;;;;;;;20.19;47.96;99841.11;1727055;82;21030;-67
2022/05/18 09:53:27;;;;;;;2.87;2.40;;;;;;;20.18;47.95;99842.15;1727264;83;21554;-68
2022/05/18 09:55:53;;;;;;;3.70;2.50;;;;;;;20.17;47.94;99835.13;1727040;83;21011;-69
2022/05/18 09:58:28;;;;;;;2.20;2.00;;;;;;;20.17;47.94;99839.70;1728070;81;21057;-68
2022/05/18 10:09:42;;;;;;;3.42;2.50;;;;;;;20.14;47.95;99853.09;1757168;81;20983;-69
2022/05/18 10:12:26;;;;;;;3.08;2.40;;;;;;;20.13;47.95;99861.44;1756574;81;21601;-68
2022/05/18 10:15:03;;;;;;;3.15;2.85;;;;;;;20.13;47.96;99862.79;1711512;83;21065;-69
2022/05/18 10:17:36;;;;;;;3.35;2.37;;;;;;;20.11;47.98;99868.41;1681708;85;21122;-68
2022/05/18 10:20:29;;;;;;;2.87;2.35;;;;;;;20.06;47.96;99862.05;1687916;84;21863;-67
2022/05/18 10:22:56;;;;;;;4.00;2.37;;;;;;;20.08;48.00;99867.50;1679828;85;21062;-69
2022/05/18 10:25:44;;;;;;;2.85;2.50;;;;;;;20.08;48.01;99869.38;1714562;83;21030;-70
2022/05/18 10:28:26;;;;;;;2.77;2.58;;;;;;;20.06;48.01;99869.60;1714173;82;21078;-69
2022/05/18 10:31:03;;;;;;;3.02;2.83;;;;;;;20.06;48.02;99870.95;1714734;82;21066;-68
2022/05/18 10:33:38;;;;;;;3.25;2.62;;;;;;;20.06;48.05;99872.83;1679467;85;21843;-69
2022/05/18 10:36:15;;;;;;;3.55;2.50;;;;;;;20.05;48.08;99877.41;1678846;85;21025;-68
2022/05/18 10:38:57;;;;;;;2.72;2.52;;;;;;;20.04;48.08;99878.45;1678604;85;21552;-68
2022/05/18 10:41:27;;;;;;;3.35;3.05;;;;;;;20.04;48.08;99881.14;1714136;83;21491;-69
2022/05/18 10:44:08;;;;;;;3.05;2.70;;;;;;;20.02;48.09;99882.71;1679246;85;21105;-68
2022/05/18 10:46:41;;;;;;;2.85;2.40;;;;;;;20.02;48.09;99883.25;1713871;82;21282;-68
2022/05/18 10:49:13;;;;;;;3.30;2.65;;;;;;;20.02;48.10;99883.25;1680412;84;21019;-68
2022/05/18 10:51:43;;;;;;;3.00;2.60;;;;;;;20.02;48.12;99892.15;1679499;85;20994;-69
2022/05/18 10:54:29;;;;;;;3.10;2.80;;;;;;;20.01;48.11;99886.98;1679375;85;21081;-68
2022/05/18 10:57:15;;;;;;;2.72;2.30;;;;;;;20.00;48.12;99881.30;1714148;83;21086;-68
2022/05/18 10:59:53;;;;;;;3.55;2.75;;;;;;;20.00;48.10;99885.34;1713891;83;21091;-68
2022/05/18 11:02:57;;;;;;;2.80;2.45;;;;;;;19.99;48.15;99885.03;1714041;82;21545;-69
2022/05/18 11:05:46;;;;;;;3.15;2.77;;;;;;;19.98;48.12;99888.80;1715335;81;21010;-68
2022/05/18 11:08:16;;;;;;;3.20;2.52;;;;;;;19.97;48.18;99895.22;1743378;82;21042;-70
2022/05/18 11:11:04;;;;;;;2.83;2.62;;;;;;;19.95;48.15;99886.04;1743557;82;20983;-69
2022/05/18 11:13:53;;;;;;;3.12;2.72;;;;;;;19.94;48.20;99894.34;1707790;83;21525;-69
2022/05/18 11:16:31;;;;;;;2.67;2.47;;;;;;;19.93;48.18;99897.55;1743464;80;21003;-67
2022/05/18 11:19:35;;;;;;;3.30;2.85;;;;;;;19.93;48.21;99907.52;1707750;84;21503;-68
2022/05/18 11:22:33;;;;;;;2.35;2.15;;;;;;;19.92;48.22;99915.31;1751790;81;21089;-68
2022/05/18 11:25:20;;;;;;;2.90;2.60;;;;;;;19.90;48.23;99924.97;1726853;83;21158;-68
2022/05/18 11:28:16;;;;;;;3.08;2.77;;;;;;;19.89;48.25;99925.19;1726956;83;21228;-68
2022/05/18 11:31:13;;;;;;;3.37;2.95;;;;;;;19.87;48.25;99925.41;1726799;82;21005;-68
2022/05/18 11:33:48;;;;;;;2.45;2.15;;;;;;;19.87;48.29;99927.29;1726897;83;21033;-68
2022/05/18 11:36:25;;;;;;;3.25;2.60;;;;;;;19.84;48.31;99930.73;1726854;82;21577;-67
2022/05/18 11:39:00;;;;;;;3.02;2.60;;;;;;;19.84;48.31;99940.17;1726880;81;21093;-68
2022/05/18 11:41:42;;;;;;;3.05;2.55;;;;;;;19.84;48.32;99936.66;1727212;82;21795;-68
2022/05/18 11:44:36;;;;;;;2.85;2.65;;;;;;;19.84;48.31;99932.62;1691923;84;21077;-68
2022/05/18 11:47:28;;;;;;;2.77;2.50;;;;;;;19.83;48.33;99939.86;1692001;84;21525;-68
2022/05/18 11:50:18;;;;;;;3.27;2.83;;;;;;;19.83;48.34;99947.95;1691940;84;21073;-68
2022/05/18 11:53:08;;;;;;;3.50;2.55;;;;;;;19.82;48.33;99942.27;1692211;84;21553;-68
2022/05/18 11:56:06;;;;;;;3.10;2.72;;;;;;;19.82;48.32;99945.50;1691967;84;21150;-68
2022/05/18 11:58:48;;;;;;;4.87;3.55;;;;;;;19.81;48.35;99950.58;1691918;84;21648;-68
2022/05/18 12:01:24;;;;;;;3.00;2.60;;;;;;;19.80;48.38;99953.80;1691647;84;21052;-68
2022/05/18 12:04:18;;;;;;;4.03;2.67;;;;;;;19.80;48.38;99948.41;1683301;84;21517;-68
2022/05/18 12:07:12;;;;;;;3.65;2.80;;;;;;;19.79;48.39;99945.40;1714784;82;21009;-68
2022/05/18 12:10:09;;;;;;;2.65;2.40;;;;;;;19.79;48.40;99949.98;1720784;83;22123;-69
2022/05/18 12:12:53;;;;;;;3.02;2.72;;;;;;;19.77;48.43;99952.89;1736108;82;21532;-68
2022/05/18 12:15:44;;;;;;;2.77;2.58;;;;;;;19.76;48.44;99955.30;1691852;84;21049;-68
2022/05/18 12:18:25;;;;;;;3.20;2.90;;;;;;;19.77;48.45;99969.06;1691881;84;21037;-69
2022/05/18 12:21:02;;;;;;;3.52;2.60;;;;;;;19.76;48.46;99970.13;1689083;84;21060;-68